createdAt,value
2018-02-11T00:02:25.502Z,54.70
2018-02-11T00:04:53.844Z,56.00
2018-02-11T00:07:22.196Z,56.40
2018-02-11T00:09:50.164Z,55.70
2018-02-11T00:12:18.445Z,56.50
2018-02-11T00:14:46.333Z,57.00
2018-02-11T00:17:14.599Z,57.40
2018-02-11T00:19:42.583Z,57.00
2018-02-11T00:22:10.967Z,57.20
2018-02-11T00:24:39.361Z,57.30
2018-02-11T00:27:07.574Z,57.00
2018-02-11T00:29:37.178Z,57.00
2018-02-11T00:32:05.868Z,55.90
2018-02-11T00:34:33.852Z,56.80
2018-02-11T00:37:02.195Z,57.60
2018-02-11T00:39:30.556Z,58.00
2018-02-11T00:41:58.982Z,57.70
2018-02-11T00:44:27.379Z,57.50
2018-02-11T00:46:55.752Z,57.40
2018-02-11T00:49:24.112Z,57.50
2018-02-11T00:51:52.699Z,58.00
2018-02-11T00:54:20.623Z,58.30
2018-02-11T00:56:48.464Z,58.30
2018-02-11T00:59:16.072Z,58.40
2018-02-11T01:01:43.648Z,58.70
2018-02-11T01:04:14.295Z,58.20
2018-02-11T01:06:42.976Z,57.40
2018-02-11T01:09:12.026Z,58.80
2018-02-11T01:11:39.609Z,57.40
2018-02-11T01:14:07.290Z,58.00
2018-02-11T01:16:34.924Z,58.00
2018-02-11T01:19:02.512Z,58.20
2018-02-11T01:21:30.125Z,58.20
2018-02-11T01:23:57.812Z,58.50
2018-02-11T01:26:25.416Z,58.40
2018-02-11T01:28:53.848Z,59.00
2018-02-11T01:31:21.547Z,58.60
2018-02-11T01:33:50.763Z,59.10
2018-02-11T01:36:18.863Z,58.00
2018-02-11T01:38:46.607Z,57.90
2018-02-11T01:41:14.643Z,58.50
2018-02-11T01:43:42.513Z,58.10
2018-02-11T01:46:10.925Z,57.60
2018-02-11T01:48:39.704Z,57.20
2018-02-11T01:51:07.577Z,56.60
2018-02-11T01:53:35.946Z,56.80
2018-02-11T01:56:03.558Z,55.70
2018-02-11T01:58:31.146Z,55.00
2018-02-11T02:01:00.210Z,54.60
2018-02-11T02:03:27.860Z,53.50
2018-02-11T02:05:55.483Z,53.30
2018-02-11T02:08:23.259Z,52.90
2018-02-11T02:10:50.864Z,52.60
2018-02-11T02:13:18.464Z,52.80
2018-02-11T02:15:46.063Z,53.20
2018-02-11T02:18:15.384Z,53.00
2018-02-11T02:20:43.411Z,53.00
2018-02-11T02:23:11.021Z,53.30
2018-02-11T02:25:38.621Z,52.80
2018-02-11T02:28:06.594Z,53.30
2018-02-11T02:30:34.214Z,53.10
2018-02-11T02:33:02.212Z,52.40
2018-02-11T02:35:30.714Z,52.20
2018-02-11T02:37:59.381Z,52.60
2018-02-11T02:40:28.099Z,52.70
2018-02-11T02:42:55.687Z,52.10
2018-02-11T02:45:23.989Z,51.90
2018-02-11T02:47:51.877Z,52.00
2018-02-11T02:50:19.635Z,52.30
2018-02-11T02:52:47.638Z,52.10
2018-02-11T02:55:16.339Z,52.70
2018-02-11T02:57:44.056Z,52.20
2018-02-11T03:00:11.647Z,51.90
2018-02-11T03:02:39.285Z,52.40
2018-02-11T03:05:06.866Z,52.40
2018-02-11T03:07:34.536Z,52.30
2018-02-11T03:10:02.164Z,52.00
2018-02-11T03:12:29.756Z,52.00
2018-02-11T03:14:57.334Z,51.80
2018-02-11T03:17:24.940Z,51.70
2018-02-11T03:19:53.172Z,51.80
2018-02-11T03:22:21.298Z,51.80
2018-02-11T03:24:49.655Z,52.50
2018-02-11T03:27:17.277Z,52.50
2018-02-11T03:29:46.615Z,52.00
2018-02-11T03:32:14.604Z,51.60
2018-02-11T03:34:43.023Z,51.40
2018-02-11T03:37:10.634Z,51.90
2018-02-11T03:39:38.227Z,51.60
2018-02-11T03:42:06.853Z,51.90
2018-02-11T03:44:34.739Z,51.10
2018-02-11T03:47:03.464Z,51.30
2018-02-11T03:49:31.839Z,51.60
2018-02-11T03:52:00.491Z,51.70
2018-02-11T03:54:28.090Z,51.60
2018-02-11T03:56:56.868Z,51.40
2018-02-11T03:59:24.463Z,51.30
2018-02-11T04:01:52.034Z,50.30
2018-02-11T04:04:20.411Z,50.30
2018-02-11T04:06:48.839Z,50.40
2018-02-11T04:09:18.495Z,50.00
2018-02-11T04:11:46.070Z,49.20
2018-02-11T04:14:15.256Z,50.30
2018-02-11T04:16:43.599Z,50.10
2018-02-11T04:19:11.199Z,49.70
2018-02-11T04:21:38.794Z,49.80
2018-02-11T04:24:06.404Z,50.30
2018-02-11T04:26:33.981Z,50.00
2018-02-11T04:29:01.590Z,49.90
2018-02-11T04:31:29.171Z,49.00
2018-02-11T04:33:57.580Z,49.20
2018-02-11T04:36:25.188Z,48.90
2018-02-11T04:38:53.033Z,49.40
2018-02-11T04:41:20.830Z,49.40
2018-02-11T04:43:48.422Z,48.70
2018-02-11T04:46:16.016Z,48.90
2018-02-11T04:48:43.633Z,49.00
2018-02-11T04:51:11.237Z,48.50
2018-02-11T04:53:38.836Z,47.80
2018-02-11T04:56:07.186Z,47.60
2018-02-11T04:58:34.927Z,46.90
2018-02-11T05:01:03.843Z,47.20
2018-02-11T05:03:32.882Z,47.50
2018-02-11T05:06:01.844Z,46.70
2018-02-11T05:08:29.441Z,46.50
2018-02-11T05:10:57.274Z,46.60
2018-02-11T05:13:25.030Z,46.30
2018-02-11T05:15:52.648Z,46.50
2018-02-11T05:18:20.263Z,46.40
2018-02-11T05:20:48.623Z,46.70
2018-02-11T05:23:16.377Z,46.50
2018-02-11T05:25:44.333Z,46.30
2018-02-11T05:28:13.385Z,46.20
2018-02-11T05:30:41.754Z,46.70
2018-02-11T05:33:10.118Z,46.60
2018-02-11T05:35:37.737Z,46.50
2018-02-11T05:38:05.712Z,47.40
2018-02-11T05:40:33.305Z,47.80
2018-02-11T05:43:00.950Z,48.10
2018-02-11T05:45:28.954Z,47.70
2018-02-11T05:47:57.691Z,47.30
2018-02-11T05:50:25.329Z,47.00
2018-02-11T05:52:52.911Z,46.60
2018-02-11T05:55:20.560Z,46.50
2018-02-11T05:57:48.928Z,46.80
2018-02-11T06:00:16.571Z,46.80
2018-02-11T06:02:44.167Z,46.60
2018-02-11T06:05:11.772Z,46.50
2018-02-11T06:07:39.377Z,47.00
2018-02-11T06:10:07.134Z,45.80
2018-02-11T06:12:34.723Z,46.60
2018-02-11T06:15:02.987Z,46.30
2018-02-11T06:17:30.711Z,46.10
2018-02-11T06:19:59.424Z,46.60
2018-02-11T06:22:27.060Z,46.50
2018-02-11T06:24:54.778Z,47.30
2018-02-11T06:27:22.357Z,47.90
2018-02-11T06:29:50.075Z,47.70
2018-02-11T06:32:17.654Z,46.90
2018-02-11T06:34:45.293Z,47.30
2018-02-11T06:37:13.652Z,48.30
2018-02-11T06:39:42.142Z,47.40
2018-02-11T06:42:11.168Z,47.10
2018-02-11T06:44:38.974Z,47.00
2018-02-11T06:47:06.716Z,47.30
2018-02-11T06:49:34.686Z,47.20
2018-02-11T06:52:02.295Z,46.40
2018-02-11T06:54:31.498Z,46.10
2018-02-11T06:56:59.538Z,45.40
2018-02-11T06:59:27.998Z,45.40
2018-02-11T07:01:55.603Z,45.40
2018-02-11T07:04:23.968Z,45.20
2018-02-11T07:06:51.575Z,44.80
2018-02-11T07:09:19.155Z,44.70
2018-02-11T07:11:47.004Z,44.20
2018-02-11T07:14:14.612Z,44.40
2018-02-11T07:16:42.231Z,45.00
2018-02-11T07:19:10.698Z,45.20
2018-02-11T07:21:38.342Z,45.00
2018-02-11T07:24:06.691Z,45.00
2018-02-11T07:26:34.320Z,44.40
2018-02-11T07:29:03.083Z,45.40
2018-02-11T07:31:31.012Z,45.00
2018-02-11T07:33:59.389Z,45.10
2018-02-11T07:36:27.206Z,45.00
2018-02-11T07:38:56.080Z,44.90
2018-02-11T07:41:24.338Z,45.30
2018-02-11T07:43:52.423Z,44.70
2018-02-11T07:46:20.057Z,44.60
2018-02-11T07:48:48.708Z,44.80
2018-02-11T07:51:16.904Z,44.40
2018-02-11T07:53:44.634Z,44.90
2018-02-11T07:56:12.288Z,45.00
2018-02-11T07:58:39.873Z,45.50
2018-02-11T08:01:07.488Z,45.10
2018-02-11T08:03:39.359Z,45.00
2018-02-11T08:06:07.146Z,45.00
2018-02-11T08:08:34.798Z,45.40
2018-02-11T08:11:02.416Z,45.10
2018-02-11T08:13:30.117Z,45.20
2018-02-11T08:15:57.711Z,44.90
2018-02-11T08:18:25.316Z,44.80
2018-02-11T08:20:53.664Z,45.60
2018-02-11T08:23:22.393Z,46.40
2018-02-11T08:25:50.616Z,46.30
2018-02-11T08:28:18.976Z,46.90
2018-02-11T08:30:47.354Z,46.50
2018-02-11T08:33:14.999Z,45.20
2018-02-11T08:35:42.984Z,45.20
2018-02-11T08:38:11.398Z,45.50
2018-02-11T08:40:39.036Z,45.50
2018-02-11T08:43:08.016Z,46.20
2018-02-11T08:45:37.577Z,45.60
2018-02-11T08:48:06.449Z,45.20
2018-02-11T08:50:34.088Z,44.90
2018-02-11T08:53:01.790Z,44.50
2018-02-11T08:55:29.423Z,44.80
2018-02-11T08:57:57.068Z,44.40
2018-02-11T09:00:24.665Z,44.90
2018-02-11T09:02:53.046Z,46.00
2018-02-11T09:05:20.665Z,45.50
2018-02-11T09:07:48.384Z,44.70
2018-02-11T09:10:16.340Z,44.40
2018-02-11T09:12:44.030Z,43.70
2018-02-11T09:15:12.572Z,43.90
2018-02-11T09:17:40.224Z,44.50
2018-02-11T09:20:08.690Z,44.70
2018-02-11T09:22:36.360Z,43.90
2018-02-11T09:25:04.436Z,43.50
2018-02-11T09:27:32.498Z,42.40
2018-02-11T09:30:00.111Z,43.60
2018-02-11T09:32:28.181Z,43.70
2018-02-11T09:34:55.859Z,44.20
2018-02-11T09:37:23.464Z,45.00
2018-02-11T09:39:52.041Z,44.30
2018-02-11T09:42:19.674Z,44.40
2018-02-11T09:44:48.504Z,44.40
2018-02-11T09:47:16.123Z,43.90
2018-02-11T09:49:44.166Z,44.00
2018-02-11T09:52:13.411Z,43.40
2018-02-11T09:54:41.047Z,43.70
2018-02-11T09:57:09.429Z,43.00
2018-02-11T09:59:37.429Z,43.00
2018-02-11T10:02:05.113Z,42.60
2018-02-11T10:04:34.577Z,42.90
2018-02-11T10:07:03.301Z,43.40
2018-02-11T10:09:32.055Z,44.40
2018-02-11T10:11:59.712Z,46.20
2018-02-11T10:14:28.091Z,47.20
2018-02-11T10:16:56.807Z,48.20
2018-02-11T10:19:24.414Z,47.70
2018-02-11T10:21:51.993Z,48.30
2018-02-11T10:24:20.013Z,48.80
2018-02-11T10:26:49.000Z,49.00
2018-02-11T10:29:17.999Z,49.70
2018-02-11T10:31:46.365Z,49.40
2018-02-11T10:34:14.364Z,49.60
2018-02-11T10:36:42.752Z,49.50
2018-02-11T10:39:10.443Z,48.90
2018-02-11T10:41:38.513Z,49.00
2018-02-11T10:44:06.748Z,49.20
2018-02-11T10:46:35.116Z,49.00
2018-02-11T10:49:03.473Z,49.20
2018-02-11T10:51:31.861Z,49.30
2018-02-11T10:54:00.220Z,49.70
2018-02-11T10:56:28.686Z,49.70
2018-02-11T10:58:56.764Z,50.50
2018-02-11T11:01:24.949Z,50.50
2018-02-11T11:03:54.528Z,49.80
2018-02-11T11:06:22.624Z,49.30
2018-02-11T11:08:51.995Z,49.80
2018-02-11T11:11:20.235Z,51.00
2018-02-11T11:13:48.965Z,52.40
2018-02-11T11:16:16.611Z,52.30
2018-02-11T11:18:44.981Z,53.50
2018-02-11T11:21:14.029Z,53.90
2018-02-11T11:23:41.763Z,54.20
2018-02-11T11:26:09.752Z,54.70
2018-02-11T11:28:37.339Z,55.60
2018-02-11T11:31:05.368Z,55.50
2018-02-11T11:33:34.833Z,55.40
2018-02-11T11:36:04.009Z,54.20
2018-02-11T11:38:31.627Z,54.90
2018-02-11T11:40:59.633Z,53.30
2018-02-11T11:43:27.214Z,53.80
2018-02-11T11:45:55.235Z,55.70
2018-02-11T11:48:23.590Z,57.00
2018-02-11T11:50:52.415Z,58.00
2018-02-11T11:53:20.858Z,58.80
2018-02-11T11:55:48.988Z,59.50
2018-02-11T11:58:18.056Z,60.30
2018-02-11T12:00:45.691Z,60.60
2018-02-11T12:03:13.997Z,60.30
2018-02-11T12:05:42.799Z,60.20
2018-02-11T12:08:10.774Z,60.00
2018-02-11T12:10:38.750Z,59.90
2018-02-11T12:13:06.789Z,60.00
2018-02-11T12:15:34.405Z,60.30
2018-02-11T12:18:02.397Z,59.70
2018-02-11T12:20:30.364Z,58.00
2018-02-11T12:22:59.286Z,59.50
2018-02-11T12:25:27.296Z,59.10
2018-02-11T12:27:55.292Z,59.60
2018-02-11T12:30:23.029Z,59.20
2018-02-11T12:32:52.680Z,59.00
2018-02-11T12:35:21.073Z,58.10
2018-02-11T12:37:49.137Z,57.50
2018-02-11T12:40:18.225Z,58.30
2018-02-11T12:42:46.222Z,58.40
2018-02-11T12:45:14.272Z,58.50
2018-02-11T12:47:43.153Z,58.50
2018-02-11T12:50:12.253Z,59.40
2018-02-11T12:52:41.460Z,60.10
2018-02-11T12:55:09.087Z,60.10
2018-02-11T12:57:37.328Z,60.70
2018-02-11T13:00:06.167Z,60.40
2018-02-11T13:02:33.827Z,60.70
2018-02-11T13:05:02.510Z,60.80
2018-02-11T13:07:30.531Z,60.20
2018-02-11T13:09:58.903Z,60.40
2018-02-11T13:12:26.835Z,60.00
2018-02-11T13:14:54.712Z,59.20
2018-02-11T13:17:23.233Z,59.70
2018-02-11T13:19:50.883Z,60.40
2018-02-11T13:22:19.295Z,60.50
2018-02-11T13:24:47.671Z,60.70
2018-02-11T13:27:16.082Z,60.00
2018-02-11T13:29:44.476Z,60.00
2018-02-11T13:32:13.063Z,59.80
2018-02-11T13:34:41.887Z,59.50
2018-02-11T13:37:10.036Z,59.40
2018-02-11T13:39:37.824Z,59.70
2018-02-11T13:42:07.403Z,59.60
2018-02-11T13:44:35.787Z,60.00
2018-02-11T13:47:06.086Z,60.20
2018-02-11T13:49:34.146Z,59.60
2018-02-11T13:52:02.838Z,59.90
2018-02-11T13:54:31.014Z,58.90
2018-02-11T13:56:59.066Z,59.10
2018-02-11T13:59:28.966Z,59.10
2018-02-11T14:01:58.032Z,60.70
2018-02-11T14:04:25.640Z,61.00
2018-02-11T14:06:54.482Z,61.90
2018-02-11T14:09:22.249Z,62.60
2018-02-11T14:11:50.611Z,63.80
2018-02-11T14:14:18.975Z,64.20
2018-02-11T14:16:47.318Z,63.90
2018-02-11T14:19:15.839Z,63.50
2018-02-11T14:21:44.466Z,63.00
2018-02-11T14:24:12.509Z,63.30
2018-02-11T14:26:40.097Z,62.60
2018-02-11T14:29:14.304Z,62.70
2018-02-11T14:31:41.984Z,62.80
2018-02-11T14:34:10.483Z,62.30
2018-02-11T14:36:38.918Z,62.40
2018-02-11T14:39:06.945Z,62.90
2018-02-11T14:41:36.024Z,64.10
2018-02-11T14:44:03.867Z,63.50
2018-02-11T14:46:31.840Z,64.00
2018-02-11T14:48:59.464Z,63.30
2018-02-11T14:51:27.434Z,62.70
2018-02-11T14:53:55.790Z,63.20
2018-02-11T14:56:24.142Z,63.90
2018-02-11T14:58:52.489Z,64.70
2018-02-11T15:01:20.889Z,64.90
2018-02-11T15:03:48.972Z,64.10
2018-02-11T15:06:17.600Z,62.80
2018-02-11T15:08:45.685Z,63.70
2018-02-11T15:11:14.818Z,63.70
2018-02-11T15:13:42.896Z,63.40
2018-02-11T15:16:11.342Z,62.90
2018-02-11T15:18:39.404Z,62.60
2018-02-11T15:21:08.084Z,63.10
2018-02-11T15:23:36.067Z,63.50
2018-02-11T15:26:03.726Z,62.50
2018-02-11T15:28:31.687Z,62.40
2018-02-11T15:31:00.050Z,61.20
2018-02-11T15:33:28.868Z,60.90
2018-02-11T15:36:08.664Z,60.60
2018-02-11T15:38:39.685Z,60.90
2018-02-11T15:41:08.252Z,61.00
2018-02-11T15:43:36.267Z,61.00
2018-02-11T15:46:04.333Z,60.30
2018-02-11T15:56:05.336Z,60.50
2018-02-11T15:58:33.309Z,60.40
2018-02-11T16:01:01.684Z,59.70
2018-02-11T16:03:30.045Z,59.30
2018-02-11T16:05:58.415Z,61.00
2018-02-11T16:08:26.823Z,61.10
2018-02-11T16:10:57.438Z,61.70
2018-02-11T16:13:25.149Z,61.80
2018-02-11T16:15:53.189Z,60.80
2018-02-11T16:18:22.028Z,60.70
2018-02-11T16:20:50.005Z,59.70
2018-02-11T16:23:18.004Z,60.40
2018-02-11T16:25:48.488Z,60.70
2018-02-11T16:28:17.732Z,60.70
2018-02-11T16:30:53.927Z,60.60
2018-02-11T16:33:24.853Z,59.90
2018-02-11T16:35:53.733Z,60.30
2018-02-11T16:38:21.359Z,60.30
2018-02-11T16:40:49.165Z,61.10
2018-02-11T16:43:17.523Z,61.80
2018-02-11T16:45:45.879Z,61.90
2018-02-11T16:48:14.802Z,61.40
2018-02-11T16:50:43.783Z,61.40
2018-02-11T16:53:11.555Z,61.10
2018-02-11T16:55:39.161Z,61.00
2018-02-11T16:58:07.530Z,61.10
2018-02-11T17:00:36.008Z,61.40
2018-02-11T17:03:04.469Z,62.00
2018-02-11T17:05:41.487Z,61.60
2018-02-11T17:08:10.767Z,61.40
2018-02-11T17:10:40.826Z,61.70
2018-02-11T17:13:08.868Z,62.00
2018-02-11T17:15:39.294Z,61.70
2018-02-11T17:18:07.129Z,61.70
2018-02-11T17:20:35.157Z,61.70
2018-02-11T17:23:03.524Z,62.20
2018-02-11T17:25:31.974Z,62.40
2018-02-11T17:28:00.954Z,62.50
2018-02-11T17:30:28.648Z,61.40
2018-02-11T17:32:59.558Z,61.30
2018-02-11T17:35:28.078Z,60.90
2018-02-11T17:37:56.540Z,61.60
2018-02-11T17:40:25.717Z,60.60
2018-02-11T17:43:01.399Z,60.70
2018-02-11T17:45:29.411Z,61.70
2018-02-11T17:47:57.490Z,62.20
2018-02-11T17:50:26.094Z,61.50
2018-02-11T17:52:54.457Z,61.40
2018-02-11T17:55:22.847Z,60.90
2018-02-11T17:57:50.835Z,60.00
2018-02-11T18:00:18.533Z,59.90
2018-02-11T18:02:47.420Z,59.40
2018-02-11T18:05:15.581Z,59.80
2018-02-11T18:07:43.223Z,60.10
2018-02-11T18:10:11.605Z,61.10
2018-02-11T18:12:41.686Z,61.20
2018-02-11T18:15:09.424Z,61.60
2018-02-11T18:17:40.020Z,62.00
2018-02-11T18:20:08.555Z,62.60
2018-02-11T18:22:38.146Z,62.10
2018-02-11T18:25:05.908Z,61.20
2018-02-11T18:27:34.330Z,61.40
2018-02-11T18:30:02.737Z,60.70
2018-02-11T18:32:31.174Z,60.40
2018-02-11T18:34:59.173Z,59.70
2018-02-11T18:37:27.559Z,59.80
2018-02-11T18:39:56.353Z,61.40
2018-02-11T18:42:25.161Z,61.20
2018-02-11T18:44:54.280Z,61.00
2018-02-11T18:47:22.283Z,60.70
2018-02-11T18:49:51.007Z,61.60
2018-02-11T18:52:19.062Z,62.50
2018-02-11T18:54:47.754Z,62.60
2018-02-11T18:57:16.048Z,62.00
2018-02-11T18:59:44.472Z,61.30
2018-02-11T19:02:12.541Z,61.00
2018-02-11T19:04:40.932Z,60.10
2018-02-11T19:07:08.896Z,60.30
2018-02-11T19:09:36.523Z,60.30
2018-02-11T19:12:04.521Z,60.30
2018-02-11T19:14:33.284Z,60.00
2018-02-11T19:17:01.293Z,60.20
2018-02-11T19:19:30.057Z,59.90
2018-02-11T19:21:59.057Z,59.80
2018-02-11T19:24:26.648Z,59.60
2018-02-11T19:26:54.706Z,59.60
2018-02-11T19:29:23.107Z,59.20
2018-02-11T19:31:52.228Z,59.20
2018-02-11T19:34:20.618Z,59.70
2018-02-11T19:36:48.349Z,58.90
2018-02-11T19:39:16.383Z,58.60
2018-02-11T19:41:44.782Z,58.50
2018-02-11T19:44:12.768Z,55.40
2018-02-11T19:46:41.010Z,58.40
2018-02-11T19:49:08.629Z,58.40
2018-02-11T19:51:37.943Z,58.00
2018-02-11T19:54:06.115Z,57.80
2018-02-11T19:56:34.258Z,57.80
2018-02-11T19:59:01.821Z,57.80
2018-02-11T20:01:30.294Z,57.70
2018-02-11T20:03:58.670Z,57.50
2018-02-11T20:06:26.665Z,57.30
2018-02-11T20:08:55.181Z,57.60
2018-02-11T20:11:24.228Z,57.30
2018-02-11T20:13:51.866Z,57.30
2018-02-11T20:16:20.279Z,57.10
2018-02-11T20:18:48.636Z,57.10
2018-02-11T20:21:17.009Z,57.30
2018-02-11T20:23:46.897Z,57.80
2018-02-11T20:26:15.069Z,57.20
2018-02-11T20:28:43.474Z,57.20
2018-02-11T20:31:11.890Z,57.10
2018-02-11T20:33:40.626Z,57.60
2018-02-11T20:36:08.995Z,57.20
2018-02-11T20:38:36.598Z,57.50
2018-02-11T20:41:05.197Z,57.30
2018-02-11T20:43:33.554Z,57.90
2018-02-11T20:46:02.083Z,58.00
2018-02-11T20:48:30.086Z,57.70
2018-02-11T20:50:58.467Z,78.10
2018-02-11T20:53:26.136Z,64.70
2018-02-11T20:55:53.946Z,56.00
2018-02-11T20:58:21.945Z,54.30
2018-02-11T21:00:50.309Z,55.10
2018-02-11T21:03:18.698Z,55.60
2018-02-11T21:05:46.263Z,55.20
2018-02-11T21:08:13.856Z,56.10
2018-02-11T21:10:41.539Z,57.10
2018-02-11T21:13:09.348Z,57.30
2018-02-11T21:15:37.135Z,58.00
2018-02-11T21:18:04.768Z,58.70
2018-02-11T21:20:32.387Z,58.90
2018-02-11T21:23:00.140Z,58.60
2018-02-11T21:25:28.202Z,58.50
2018-02-11T21:27:56.273Z,58.40
2018-02-11T21:30:23.889Z,58.60
2018-02-11T21:32:52.271Z,58.80
2018-02-11T21:35:19.872Z,58.00
2018-02-11T21:37:47.490Z,57.80
2018-02-11T21:40:15.872Z,58.90
2018-02-11T21:42:44.414Z,59.30
2018-02-11T21:45:11.982Z,59.10
2018-02-11T21:47:39.595Z,59.20
2018-02-11T21:50:07.152Z,59.40
2018-02-11T21:52:34.752Z,59.10
2018-02-11T21:55:02.385Z,58.90
2018-02-11T21:57:29.954Z,58.70
2018-02-11T21:59:57.585Z,58.30
2018-02-11T22:02:25.191Z,58.80
2018-02-11T22:04:53.228Z,58.40
2018-02-11T22:07:20.916Z,58.00
2018-02-11T22:09:48.605Z,57.70
2018-02-11T22:12:16.196Z,58.00
2018-02-11T22:14:44.570Z,59.00
2018-02-11T22:17:12.912Z,58.90
2018-02-11T22:19:41.272Z,59.10
2018-02-11T22:22:08.869Z,59.70
2018-02-11T22:24:37.371Z,59.40
2018-02-11T22:27:05.012Z,59.20
2018-02-11T22:29:32.617Z,59.70
2018-02-11T22:32:01.046Z,59.10
2018-02-11T22:34:28.672Z,58.40
2018-02-11T22:37:02.987Z,58.00
2018-02-11T22:39:30.612Z,57.90
2018-02-11T22:42:01.447Z,57.80
2018-02-11T22:44:29.993Z,57.90
2018-02-11T22:46:57.583Z,58.00
2018-02-11T22:49:25.227Z,58.00
2018-02-11T22:51:52.829Z,58.50
2018-02-11T22:54:22.097Z,58.60
2018-02-11T22:56:49.910Z,58.10
2018-02-11T22:59:19.042Z,57.80
2018-02-11T23:01:46.812Z,58.00
2018-02-11T23:04:15.226Z,58.50
2018-02-11T23:06:42.822Z,58.00
2018-02-11T23:09:11.286Z,57.70
2018-02-11T23:11:38.925Z,57.80
2018-02-11T23:14:06.547Z,58.00
2018-02-11T23:16:34.298Z,58.40
2018-02-11T23:19:01.874Z,59.10
2018-02-11T23:21:29.502Z,60.40
2018-02-11T23:24:00.733Z,60.30
2018-02-11T23:26:30.264Z,60.60
2018-02-11T23:28:58.585Z,60.00
2018-02-11T23:31:32.663Z,60.30
2018-02-11T23:34:00.273Z,59.30
2018-02-11T23:36:28.631Z,59.10
2018-02-11T23:38:56.621Z,59.30
2018-02-11T23:41:24.346Z,59.40
2018-02-11T23:43:55.182Z,58.90
2018-02-11T23:46:22.956Z,58.80
2018-02-11T23:48:50.633Z,59.30
2018-02-11T23:51:18.225Z,59.40
2018-02-11T23:53:45.938Z,59.80
2018-02-11T23:56:15.233Z,58.90
2018-02-11T23:58:44.093Z,59.40
